Veurne, Belgium
Current Conditions -  °F | °C
As of 3:50 AM on Friday 19 Dec 2014 (Local Time) from EBOS Reporting Station
Drizzle Drizzle  
Wind Chill: 52°   Ceiling: 1000
Heat Index: 52°   Visibility: 6mi
Dew Point: 52°   Wind: 23mph
Humidity: 100%   Direction: 220°SW
Pressure: 29.88"   Gusts: NA
Location:  51.07°N, 2.66°E
Report Text: EBOS 190250Z 22020KT 9000 -DZ SCT007 BKN010 11/11 Q1012 TEMPO 4000 RADZ BKN008
Loading
Personal Weather Stations






























Interactive Weather Map New forecast layout! Learn more

10-Day Weather Forecast

Advertisements
Track Severe Weather on mobile